Time;durP1;ratioP1;P1;durP2;ratioP2;P2;SDS_P1;SDS_P2;PMS_P1;PMS_P2;Temp;Humidity;BMP_temperature;BMP_pressure;BME280_temperature;BME280_humidity;BME280_pressure;Samples;Min_cycle;Max_cycle;Signal;HPM_P1;HPM_P2
2021/04/26 00:00:59;;;;;;;2.08;1.40;;;14.40;99.90;;;;;;4968828;28;20443;-67
2021/04/26 00:03:25;;;;;;;2.05;1.70;;;14.20;99.90;;;;;;4969153;28;20030;-68
2021/04/26 00:05:50;;;;;;;1.65;1.55;;;14.40;99.90;;;;;;4968511;28;20069;-67
2021/04/26 00:08:16;;;;;;;3.05;1.30;;;14.30;99.90;;;;;;4970190;28;20049;-67
2021/04/26 00:10:42;;;;;;;2.13;1.60;;;14.30;99.90;;;;;;4967585;28;20026;-67
2021/04/26 00:13:08;;;;;;;2.88;1.75;;;14.40;99.90;;;;;;4970001;28;20030;-67
2021/04/26 00:15:34;;;;;;;1.98;1.52;;;14.30;99.90;;;;;;4967505;28;20031;-67
2021/04/26 00:18:00;;;;;;;3.20;1.73;;;14.30;99.90;;;;;;4970047;28;20023;-67
2021/04/26 00:20:29;;;;;;;4.20;1.30;;;14.30;99.90;;;;;;4966895;28;20030;-67
2021/04/26 00:22:55;;;;;;;3.70;1.48;;;14.30;99.90;;;;;;4970159;28;20108;-67
2021/04/26 00:25:21;;;;;;;1.65;1.55;;;14.20;99.90;;;;;;4963288;28;20066;-67
2021/04/26 00:27:47;;;;;;;1.77;1.20;;;14.30;99.90;;;;;;4970938;28;20062;-68
2021/04/26 00:30:17;;;;;;;4.93;1.63;;;14.20;99.90;;;;;;4966166;28;20603;-67
2021/04/26 00:32:43;;;;;;;1.20;1.10;;;14.10;99.90;;;;;;4971174;28;20073;-67
2021/04/26 00:35:09;;;;;;;1.67;1.55;;;14.20;99.90;;;;;;4961879;28;20026;-67
2021/04/26 00:37:35;;;;;;;1.48;1.38;;;14.30;99.90;;;;;;4971238;28;20185;-68
2021/04/26 00:40:01;;;;;;;2.10;1.40;;;14.20;99.90;;;;;;4960932;28;20543;-68
2021/04/26 00:42:27;;;;;;;1.70;1.60;;;14.20;99.90;;;;;;4971367;28;20046;-68
2021/04/26 00:44:53;;;;;;;1.83;1.50;;;14.20;99.90;;;;;;4960892;28;20047;-67
2021/04/26 00:47:19;;;;;;;1.50;1.40;;;14.20;99.90;;;;;;4970851;28;20035;-67
2021/04/26 00:49:44;;;;;;;2.42;1.50;;;14.20;99.90;;;;;;4968711;28;20037;-67
2021/04/26 00:52:10;;;;;;;2.08;1.85;;;14.10;99.90;;;;;;4968590;28;20030;-67
2021/04/26 00:54:36;;;;;;;4.10;1.50;;;14.20;99.90;;;;;;4967677;28;20034;-68
2021/04/26 00:57:02;;;;;;;1.73;1.42;;;14.20;99.90;;;;;;4968702;28;20619;-67
2021/04/26 00:59:28;;;;;;;1.92;1.67;;;14.20;99.90;;;;;;4966971;28;20031;-68
2021/04/26 01:01:54;;;;;;;2.00;1.67;;;14.10;99.90;;;;;;4968057;28;20764;-67
2021/04/26 01:04:20;;;;;;;1.50;1.40;;;14.20;99.90;;;;;;4977281;28;20143;-67
2021/04/26 01:06:46;;;;;;;1.80;1.55;;;14.20;99.90;;;;;;4961834;28;20491;-68
2021/04/26 01:09:12;;;;;;;2.08;1.40;;;14.20;99.90;;;;;;4964821;28;20023;-68
2021/04/26 01:12:09;;;;;;;3.38;1.60;;;14.20;99.90;;;;;;4966030;28;20038;-67
2021/04/26 01:15:11;;;;;;;2.97;1.35;;;14.00;99.90;;;;;;4964741;28;20023;-67
2021/04/26 01:17:43;;;;;;;2.03;1.60;;;14.10;99.90;;;;;;4967240;28;20113;-67
2021/04/26 01:20:33;;;;;;;3.38;1.60;;;14.20;99.90;;;;;;4964908;28;20419;-67
2021/04/26 01:23:32;;;;;;;1.55;1.40;;;14.10;99.90;;;;;;4969520;28;20515;-67
2021/04/26 01:26:01;;;;;;;2.55;1.35;;;14.10;99.90;;;;;;4962139;28;20043;-67
2021/04/26 01:28:45;;;;;;;2.47;1.67;;;14.10;99.90;;;;;;4966833;28;20169;-68
2021/04/26 01:31:19;;;;;;;2.08;1.35;;;14.00;99.90;;;;;;4969850;28;20041;-67
2021/04/26 01:33:57;;;;;;;2.20;1.60;;;14.00;99.90;;;;;;4968421;28;20027;-67
2021/04/26 01:36:27;;;;;;;1.77;1.67;;;14.00;99.90;;;;;;4962994;28;20587;-67
2021/04/26 01:38:55;;;;;;;1.50;1.40;;;14.00;99.90;;;;;;4968058;28;20070;-67
2021/04/26 01:41:23;;;;;;;2.88;1.40;;;14.00;99.90;;;;;;4961972;28;20038;-67
2021/04/26 01:43:51;;;;;;;1.55;1.45;;;13.90;99.90;;;;;;4968471;28;20027;-67
2021/04/26 01:46:18;;;;;;;1.45;1.25;;;14.00;99.90;;;;;;4961738;28;20026;-67
2021/04/26 01:48:47;;;;;;;4.63;1.40;;;13.90;99.90;;;;;;4965442;28;20023;-68
2021/04/26 01:51:13;;;;;;;2.10;1.45;;;14.00;99.90;;;;;;4969842;28;20142;-67
2021/04/26 01:53:41;;;;;;;1.65;1.23;;;13.90;99.90;;;;;;4968363;28;20023;-68
2021/04/26 01:56:09;;;;;;;1.55;1.45;;;13.90;99.90;;;;;;4962601;28;20039;-67
2021/04/26 01:58:39;;;;;;;1.50;1.40;;;14.00;99.90;;;;;;4968360;28;20109;-68
2021/04/26 02:01:05;;;;;;;1.92;1.75;;;13.90;99.90;;;;;;4961843;28;20077;-67
2021/04/26 02:03:34;;;;;;;2.72;1.30;;;13.90;99.90;;;;;;4968100;28;20031;-68
2021/04/26 02:06:00;;;;;;;2.45;1.50;;;13.90;99.90;;;;;;4968443;28;20034;-67
2021/04/26 02:08:26;;;;;;;1.77;1.42;;;13.90;99.90;;;;;;4967410;28;20059;-67
2021/04/26 02:10:53;;;;;;;1.48;1.38;;;13.90;99.90;;;;;;4958508;28;20023;-67
2021/04/26 02:13:24;;;;;;;4.47;1.45;;;13.90;99.90;;;;;;4967026;28;20420;-67
2021/04/26 02:15:53;;;;;;;2.58;1.67;;;14.00;99.90;;;;;;4966145;28;20570;-67
2021/04/26 02:18:20;;;;;;;1.80;1.70;;;14.00;99.90;;;;;;4968349;28;20345;-67
2021/04/26 02:20:45;;;;;;;3.45;1.52;;;13.90;99.90;;;;;;4962576;28;20071;-67
2021/04/26 02:23:12;;;;;;;2.95;1.42;;;13.90;99.90;;;;;;4968099;28;20751;-67
2021/04/26 02:25:38;;;;;;;4.05;1.40;;;13.90;99.90;;;;;;4964998;28;20485;-67
2021/04/26 02:28:04;;;;;;;1.75;1.40;;;13.90;99.90;;;;;;4972116;28;20038;-67
2021/04/26 02:30:30;;;;;;;1.73;1.55;;;13.90;99.90;;;;;;4969382;28;20027;-67
2021/04/26 02:33:05;;;;;;;1.38;1.27;;;13.80;99.90;;;;;;4972877;28;20041;-67
2021/04/26 02:35:38;;;;;;;2.60;1.63;;;13.90;99.90;;;;;;4966715;28;20459;-68
2021/04/26 02:38:11;;;;;;;2.80;1.45;;;13.90;99.90;;;;;;4971763;28;20023;-67
2021/04/26 02:41:11;;;;;;;4.18;1.60;;;13.80;99.90;;;;;;4970419;28;20089;-67
2021/04/26 02:43:43;;;;;;;4.20;1.75;;;13.80;99.90;;;;;;4964462;28;20046;-67
2021/04/26 02:46:11;;;;;;;2.28;1.50;;;13.80;99.90;;;;;;4972091;28;20037;-67
2021/04/26 02:48:38;;;;;;;1.50;1.40;;;13.90;99.90;;;;;;4969220;28;20495;-67
2021/04/26 02:51:05;;;;;;;1.88;1.60;;;13.80;99.90;;;;;;4970400;28;20027;-67
2021/04/26 02:53:33;;;;;;;2.90;1.75;;;13.80;99.90;;;;;;4969952;28;20027;-67
2021/04/26 02:56:04;;;;;;;3.00;1.40;;;13.80;99.90;;;;;;4970798;28;20077;-67
2021/04/26 02:58:30;;;;;;;1.42;1.33;;;13.90;99.90;;;;;;4971164;28;20085;-67
2021/04/26 03:00:58;;;;;;;1.50;1.40;;;13.80;99.90;;;;;;4970336;28;20027;-67
2021/04/26 03:03:25;;;;;;;1.65;1.42;;;13.90;99.90;;;;;;4970944;28;20063;-67
2021/04/26 03:05:51;;;;;;;2.35;1.50;;;13.70;99.90;;;;;;4968445;28;20027;-67
2021/04/26 03:08:17;;;;;;;1.92;1.60;;;13.80;99.90;;;;;;4971006;28;20105;-68
2021/04/26 03:10:46;;;;;;;1.88;1.48;;;13.80;99.90;;;;;;4965177;28;20594;-67
2021/04/26 03:13:12;;;;;;;1.48;1.30;;;13.80;99.90;;;;;;4966836;28;20024;-67
2021/04/26 03:15:38;;;;;;;1.85;1.40;;;13.80;99.90;;;;;;4963196;28;20034;-67
2021/04/26 03:18:05;;;;;;;2.40;1.63;;;13.90;99.90;;;;;;4968359;28;20138;-67
2021/04/26 03:20:32;;;;;;;1.80;1.40;;;13.80;99.90;;;;;;4965750;28;20038;-67
2021/04/26 03:22:58;;;;;;;1.58;1.40;;;13.80;99.90;;;;;;4971380;28;20047;-67
2021/04/26 03:25:25;;;;;;;3.35;1.70;;;13.80;99.90;;;;;;4967329;28;20042;-67
2021/04/26 03:27:54;;;;;;;1.88;1.38;;;13.80;99.90;;;;;;4972285;28;20031;-68
2021/04/26 03:30:25;;;;;;;2.75;1.40;;;13.80;99.90;;;;;;4964730;28;20031;-67
2021/04/26 03:32:52;;;;;;;1.50;1.40;;;13.80;99.90;;;;;;4971585;28;20094;-67
2021/04/26 03:35:20;;;;;;;2.30;1.55;;;13.80;99.90;;;;;;4966921;28;20039;-67
2021/04/26 03:37:48;;;;;;;1.88;1.55;;;13.80;99.90;;;;;;4971268;28;20105;-68
2021/04/26 03:40:32;;;;;;;1.52;1.40;;;13.80;99.90;;;;;;4966364;28;20131;-67
2021/04/26 03:43:00;;;;;;;2.33;1.42;;;13.70;99.90;;;;;;4968878;28;20037;-67
2021/04/26 03:45:28;;;;;;;3.67;2.08;;;13.90;99.90;;;;;;4967677;28;20053;-67
2021/04/26 03:47:54;;;;;;;1.85;1.40;;;13.80;99.90;;;;;;4971057;28;20076;-67
2021/04/26 03:50:25;;;;;;;3.35;1.30;;;13.70;99.90;;;;;;4962926;28;20114;-67
2021/04/26 03:52:51;;;;;;;1.55;1.45;;;13.80;99.90;;;;;;4970881;28;20023;-68
2021/04/26 03:55:19;;;;;;;2.85;1.63;;;13.90;99.90;;;;;;4963778;28;20122;-67
2021/04/26 03:57:46;;;;;;;1.40;1.20;;;13.80;99.90;;;;;;4970360;28;20022;-67
2021/04/26 04:00:13;;;;;;;1.30;1.20;;;13.80;99.90;;;;;;4965711;28;20058;-67
2021/04/26 04:02:39;;;;;;;3.45;1.50;;;13.80;99.90;;;;;;4971647;28;20042;-67
2021/04/26 04:05:06;;;;;;;1.92;1.30;;;13.80;99.90;;;;;;4965558;28;20019;-67
2021/04/26 04:07:33;;;;;;;1.98;1.48;;;13.90;99.90;;;;;;4971091;28;20038;-67
2021/04/26 04:09:59;;;;;;;1.52;1.42;;;13.80;99.90;;;;;;4965796;28;20023;-67
2021/04/26 04:12:24;;;;;;;1.63;1.52;;;13.90;99.90;;;;;;4970733;28;20049;-68
2021/04/26 04:14:50;;;;;;;1.85;1.40;;;13.90;99.90;;;;;;4965509;28;20031;-67
2021/04/26 04:17:16;;;;;;;1.80;1.30;;;13.80;99.90;;;;;;4971620;28;20035;-67
2021/04/26 04:19:42;;;;;;;1.90;1.60;;;13.80;99.90;;;;;;4965343;28;20034;-68
2021/04/26 04:22:08;;;;;;;1.95;1.75;;;13.90;99.90;;;;;;4970566;28;20415;-67
2021/04/26 04:24:34;;;;;;;1.60;1.42;;;13.90;99.90;;;;;;4965310;28;20383;-67
2021/04/26 04:27:00;;;;;;;1.33;1.23;;;13.90;99.90;;;;;;4961197;28;20058;-67
2021/04/26 04:29:26;;;;;;;2.47;1.38;;;13.80;99.90;;;;;;4966324;28;20518;-67
2021/04/26 04:31:51;;;;;;;1.55;1.10;;;13.90;99.90;;;;;;4971434;28;20097;-67
2021/04/26 04:34:17;;;;;;;2.13;1.40;;;13.90;99.90;;;;;;4980223;28;20033;-67
2021/04/26 04:36:43;;;;;;;2.67;1.30;;;13.90;99.90;;;;;;4965065;28;20082;-67
2021/04/26 04:39:08;;;;;;;1.67;1.58;;;13.90;99.90;;;;;;4965894;28;20030;-67
2021/04/26 04:41:34;;;;;;;1.27;1.17;;;13.90;99.90;;;;;;4970450;28;20031;-67
2021/04/26 04:44:00;;;;;;;1.80;1.52;;;13.90;99.90;;;;;;4959819;28;20049;-67
2021/04/26 04:46:27;;;;;;;3.92;1.35;;;13.80;99.90;;;;;;4960120;28;20519;-68
2021/04/26 04:48:53;;;;;;;1.50;1.40;;;13.90;99.90;;;;;;4956990;28;20031;-68
2021/04/26 04:51:18;;;;;;;2.65;1.58;;;13.80;99.90;;;;;;4968843;28;20027;-67
2021/04/26 04:53:44;;;;;;;4.18;1.55;;;13.80;99.90;;;;;;4966950;28;20062;-67
2021/04/26 04:56:10;;;;;;;1.90;1.30;;;13.80;99.90;;;;;;4967944;28;20030;-67
2021/04/26 04:58:36;;;;;;;3.22;1.73;;;13.90;99.90;;;;;;4967526;28;20031;-67
2021/04/26 05:01:02;;;;;;;3.05;1.48;;;13.80;99.90;;;;;;4966330;28;20029;-68
2021/04/26 05:03:28;;;;;;;2.85;1.50;;;13.90;99.90;;;;;;4968298;28;20031;-68
2021/04/26 05:05:54;;;;;;;2.42;1.33;;;13.80;99.90;;;;;;4963470;28;20033;-67
2021/04/26 05:08:19;;;;;;;2.85;1.50;;;13.80;99.90;;;;;;4968962;28;20031;-67
2021/04/26 05:10:45;;;;;;;1.60;1.50;;;13.80;99.90;;;;;;4966092;28;20027;-67
2021/04/26 05:13:11;;;;;;;2.33;1.33;;;13.90;99.90;;;;;;4968755;28;20035;-67
2021/04/26 05:15:36;;;;;;;1.60;1.42;;;13.80;99.90;;;;;;4954646;28;20023;-67
2021/04/26 05:18:03;;;;;;;1.83;1.45;;;13.80;99.90;;;;;;4951141;28;20019;-68
2021/04/26 05:20:28;;;;;;;2.83;1.35;;;14.10;99.90;;;;;;4963548;28;20031;-68
2021/04/26 05:22:54;;;;;;;2.70;1.33;;;14.00;99.90;;;;;;4955649;28;20058;-68
2021/04/26 05:25:20;;;;;;;1.80;1.27;;;13.90;99.90;;;;;;4965004;28;20503;-68
2021/04/26 05:27:46;;;;;;;3.40;1.45;;;13.90;99.90;;;;;;4969861;28;20038;-68
2021/04/26 05:30:12;;;;;;;2.10;1.23;;;13.80;99.90;;;;;;4963874;28;20210;-68
2021/04/26 05:32:38;;;;;;;1.52;1.17;;;13.80;99.90;;;;;;4982908;28;20477;-68
2021/04/26 05:35:04;;;;;;;2.33;1.50;;;13.80;99.90;;;;;;4967395;28;20094;-67
2021/04/26 05:37:30;;;;;;;1.85;1.40;;;13.80;99.90;;;;;;4965282;28;20045;-67
2021/04/26 05:39:56;;;;;;;3.30;1.50;;;13.90;99.90;;;;;;4955736;28;20540;-67
2021/04/26 05:42:21;;;;;;;3.13;1.58;;;13.80;99.90;;;;;;4956444;28;20019;-68
2021/04/26 05:44:47;;;;;;;5.32;1.58;;;13.90;99.90;;;;;;4954529;28;20028;-68
2021/04/26 05:47:13;;;;;;;1.40;1.30;;;13.90;99.90;;;;;;4953065;28;20523;-67
2021/04/26 05:49:38;;;;;;;1.95;1.55;;;13.90;99.90;;;;;;4954962;28;20106;-67
2021/04/26 05:52:05;;;;;;;3.30;1.42;;;13.90;99.90;;;;;;4957067;28;20034;-67
2021/04/26 05:54:30;;;;;;;1.52;1.42;;;13.90;99.90;;;;;;4953779;28;20027;-68
2021/04/26 05:56:56;;;;;;;2.05;1.67;;;13.90;99.90;;;;;;4950018;28;20027;-67
2021/04/26 05:59:22;;;;;;;1.52;1.35;;;13.90;99.90;;;;;;4962664;28;20035;-68
2021/04/26 06:01:47;;;;;;;1.80;1.70;;;13.90;99.90;;;;;;4968950;28;20038;-68
2021/04/26 06:04:13;;;;;;;1.50;1.40;;;13.90;99.90;;;;;;4957674;28;20575;-68
2021/04/26 06:06:39;;;;;;;2.88;1.63;;;13.80;99.90;;;;;;4968514;28;20118;-68
2021/04/26 06:09:05;;;;;;;0.98;0.98;;;13.90;99.90;;;;;;4969777;28;20023;-68
2021/04/26 06:11:30;;;;;;;1.73;1.38;;;13.90;99.90;;;;;;4965933;28;20074;-68
2021/04/26 06:13:56;;;;;;;1.67;1.40;;;14.00;99.90;;;;;;4960654;28;20190;-68
2021/04/26 06:16:22;;;;;;;1.83;1.40;;;14.00;99.90;;;;;;4966754;28;20539;-68
2021/04/26 06:18:48;;;;;;;1.60;1.50;;;14.00;99.90;;;;;;4961460;28;20102;-68
2021/04/26 06:21:14;;;;;;;2.22;1.50;;;13.90;99.90;;;;;;4965556;28;20392;-69
2021/04/26 06:23:40;;;;;;;4.15;1.63;;;13.90;99.90;;;;;;4979601;28;20038;-68
2021/04/26 06:26:06;;;;;;;2.65;1.67;;;13.90;99.90;;;;;;4969590;28;20038;-68
2021/04/26 06:28:31;;;;;;;2.08;1.90;;;13.90;99.90;;;;;;4969786;28;20037;-68
2021/04/26 06:30:57;;;;;;;1.73;1.60;;;14.00;99.90;;;;;;4969441;28;20046;-68
2021/04/26 06:33:23;;;;;;;1.92;1.52;;;13.90;99.90;;;;;;4969173;28;20396;-68
2021/04/26 06:35:50;;;;;;;1.58;1.42;;;13.90;99.90;;;;;;4971571;28;20423;-68
2021/04/26 06:38:17;;;;;;;2.88;1.55;;;13.80;99.90;;;;;;4968338;28;20022;-68
2021/04/26 06:40:44;;;;;;;2.30;2.10;;;13.80;99.90;;;;;;4972388;28;20395;-68
2021/04/26 06:43:10;;;;;;;5.63;2.10;;;13.70;99.90;;;;;;4970034;28;20011;-68
2021/04/26 06:45:38;;;;;;;3.47;1.85;;;13.60;99.90;;;;;;4957272;28;20488;-68
2021/04/26 06:48:04;;;;;;;2.40;2.25;;;13.50;99.90;;;;;;4953667;28;20019;-68
2021/04/26 06:50:31;;;;;;;2.45;1.95;;;13.40;99.90;;;;;;4962510;28;20031;-68
2021/04/26 06:52:57;;;;;;;3.42;2.40;;;13.20;99.90;;;;;;4960345;28;20031;-68
2021/04/26 06:55:24;;;;;;;4.15;2.83;;;13.20;99.90;;;;;;4957518;28;20090;-68
2021/04/26 06:57:50;;;;;;;3.33;3.03;;;13.10;99.90;;;;;;4953239;28;20087;-68
2021/04/26 07:00:17;;;;;;;3.28;3.00;;;13.00;99.90;;;;;;4958013;28;20027;-68
2021/04/26 07:02:43;;;;;;;3.88;2.90;;;13.00;99.90;;;;;;4958922;28;20969;-68
2021/04/26 07:05:09;;;;;;;3.75;3.33;;;12.80;99.90;;;;;;4969832;28;20494;-68
2021/04/26 07:07:36;;;;;;;3.50;3.17;;;12.80;99.90;;;;;;4971808;28;20023;-68
2021/04/26 07:10:03;;;;;;;3.90;3.40;;;12.70;99.90;;;;;;4964856;28;20035;-68
2021/04/26 07:12:29;;;;;;;6.03;3.50;;;12.60;99.90;;;;;;4971707;28;20491;-68
2021/04/26 07:14:54;;;;;;;4.80;3.50;;;12.60;99.90;;;;;;4970074;28;20094;-68
2021/04/26 07:17:22;;;;;;;4.03;3.63;;;12.70;99.90;;;;;;4972600;28;20602;-68
2021/04/26 07:19:49;;;;;;;3.88;3.30;;;12.60;99.90;;;;;;4960116;28;20083;-68
2021/04/26 07:22:14;;;;;;;5.38;3.72;;;12.70;99.90;;;;;;4957888;28;20042;-67
2021/04/26 07:24:40;;;;;;;3.78;3.47;;;12.60;99.90;;;;;;4964633;28;20031;-69
2021/04/26 07:27:06;;;;;;;3.30;3.00;;;12.60;99.90;;;;;;4969681;28;20034;-69
2021/04/26 07:29:31;;;;;;;3.80;3.50;;;12.70;99.90;;;;;;4968159;28;20024;-71
2021/04/26 07:31:58;;;;;;;3.85;3.55;;;12.80;99.90;;;;;;4972148;28;20110;-70
2021/04/26 07:34:23;;;;;;;4.53;3.50;;;12.60;99.90;;;;;;4966534;28;20073;-70
2021/04/26 07:36:49;;;;;;;5.75;3.63;;;12.50;99.90;;;;;;4970431;28;20035;-71
2021/04/26 07:39:15;;;;;;;4.00;3.70;;;12.50;99.90;;;;;;4965952;28;20027;-71
2021/04/26 07:41:41;;;;;;;4.07;3.78;;;12.40;99.90;;;;;;4967891;28;20034;-72
2021/04/26 07:44:07;;;;;;;4.32;3.92;;;12.50;99.90;;;;;;4961429;28;20095;-71
2021/04/26 07:46:33;;;;;;;4.20;3.90;;;12.50;99.90;;;;;;4969760;28;20487;-72
2021/04/26 07:48:59;;;;;;;4.35;3.97;;;12.30;99.90;;;;;;4970017;28;20042;-68
2021/04/26 07:51:24;;;;;;;4.53;4.05;;;12.30;99.90;;;;;;4960955;28;20027;-71
2021/04/26 07:53:50;;;;;;;4.93;4.47;;;12.20;99.90;;;;;;4963394;28;20654;-71
2021/04/26 07:56:16;;;;;;;4.72;4.28;;;12.20;99.90;;;;;;4966271;28;20395;-71
2021/04/26 07:58:41;;;;;;;4.95;4.30;;;12.10;99.90;;;;;;4961190;28;20038;-71
2021/04/26 08:01:07;;;;;;;4.50;4.20;;;12.20;99.90;;;;;;4960326;28;20024;-71
2021/04/26 08:03:33;;;;;;;10.32;4.57;;;12.20;99.90;;;;;;4967699;28;20600;-69
2021/04/26 08:05:58;;;;;;;5.55;5.13;;;12.10;99.90;;;;;;4964116;28;20047;-70
2021/04/26 08:08:24;;;;;;;6.18;5.53;;;12.20;99.90;;;;;;4970066;28;20460;-71
2021/04/26 08:10:50;;;;;;;5.78;5.28;;;12.10;99.90;;;;;;4954207;28;20023;-71
2021/04/26 08:13:16;;;;;;;6.95;5.45;;;12.10;99.90;;;;;;4952708;28;20031;-68
2021/04/26 08:15:42;;;;;;;5.57;4.95;;;12.20;99.90;;;;;;4962910;28;20515;-69
2021/04/26 08:18:08;;;;;;;5.85;4.97;;;12.20;99.90;;;;;;4951468;28;20061;-71
2021/04/26 08:20:35;;;;;;;5.43;4.90;;;12.10;99.90;;;;;;4957479;28;20049;-71
2021/04/26 08:23:02;;;;;;;6.88;5.20;;;12.10;99.90;;;;;;4951037;28;20140;-71
2021/04/26 08:25:28;;;;;;;5.38;4.88;;;12.10;99.90;;;;;;4957435;28;20512;-70
2021/04/26 08:27:56;;;;;;;5.55;4.97;;;12.10;99.90;;;;;;4951813;28;20111;-70
2021/04/26 08:30:22;;;;;;;5.80;5.40;;;12.20;99.90;;;;;;4960245;28;20058;-71
2021/04/26 08:32:48;;;;;;;6.15;5.45;;;12.10;99.90;;;;;;4951877;28;20066;-71
2021/04/26 08:35:14;;;;;;;5.90;5.40;;;12.10;99.90;;;;;;4962649;28;20055;-72
2021/04/26 08:37:39;;;;;;;5.45;5.05;;;12.00;99.90;;;;;;4950517;28;20019;-71
2021/04/26 08:40:06;;;;;;;6.00;5.50;;;12.10;99.90;;;;;;4956151;28;20588;-71
2021/04/26 08:42:31;;;;;;;6.40;5.90;;;12.10;99.90;;;;;;4964945;28;20029;-71
2021/04/26 08:44:57;;;;;;;7.38;6.70;;;11.90;99.90;;;;;;4957972;28;20519;-71
2021/04/26 08:47:25;;;;;;;6.82;6.15;;;11.80;99.90;;;;;;4968580;28;20031;-71
2021/04/26 08:50:02;;;;;;;11.82;6.30;;;11.80;99.90;;;;;;4956549;28;20019;-71
2021/04/26 08:52:28;;;;;;;7.32;6.72;;;11.70;99.90;;;;;;4955992;28;20058;-70
2021/04/26 08:54:54;;;;;;;8.90;6.35;;;11.70;99.90;;;;;;4964672;28;20077;-71
2021/04/26 08:57:20;;;;;;;7.53;6.88;;;11.70;99.90;;;;;;4969762;28;20468;-72
2021/04/26 08:59:47;;;;;;;8.73;7.85;;;11.50;99.90;;;;;;4964845;28;20094;-71
2021/04/26 09:02:13;;;;;;;8.65;7.95;;;11.30;99.90;;;;;;4970391;28;20035;-70
2021/04/26 09:04:48;;;;;;;9.38;7.45;;;11.20;99.90;;;;;;4962348;28;20082;-72
2021/04/26 09:07:13;;;;;;;10.18;7.32;;;11.20;99.90;;;;;;4969792;28;20134;-72
2021/04/26 09:09:49;;;;;;;10.57;9.63;;;11.30;99.90;;;;;;4964918;28;20093;-70
2021/04/26 09:12:24;;;;;;;9.32;8.40;;;11.50;99.90;;;;;;4956944;28;20034;-71
2021/04/26 09:14:53;;;;;;;8.95;7.88;;;11.50;99.90;;;;;;4963035;28;20031;-72
2021/04/26 09:17:43;;;;;;;8.63;7.85;;;11.50;99.90;;;;;;4968491;28;20057;-71
2021/04/26 09:20:15;;;;;;;9.50;8.60;;;11.50;99.90;;;;;;4966104;28;20424;-72
2021/04/26 09:22:55;;;;;;;9.75;8.70;;;11.70;99.90;;;;;;4969630;28;20134;-68
2021/04/26 09:25:27;;;;;;;9.75;8.95;;;11.80;99.90;;;;;;4966354;28;20622;-71
2021/04/26 09:27:57;;;;;;;17.02;9.25;;;12.00;99.90;;;;;;4958749;28;20031;-71
2021/04/26 09:30:49;;;;;;;11.10;10.23;;;12.00;99.90;;;;;;4955947;28;20058;-70
2021/04/26 09:33:14;;;;;;;10.98;9.80;;;12.20;99.90;;;;;;4957908;28;20105;-70
2021/04/26 09:35:40;;;;;;;11.10;9.57;;;12.10;99.90;;;;;;4956646;28;20030;-65
2021/04/26 09:38:27;;;;;;;11.48;9.63;;;12.00;99.90;;;;;;4955839;28;20074;-71
2021/04/26 09:41:19;;;;;;;10.77;9.82;;;11.70;99.90;;;;;;4963350;28;20035;-65
2021/04/26 09:43:48;;;;;;;10.65;9.70;;;12.10;99.90;;;;;;4953555;28;20144;-71
2021/04/26 09:46:14;;;;;;;9.40;8.50;;;11.80;99.90;;;;;;4964013;28;20153;-71
2021/04/26 09:48:40;;;;;;;9.30;8.50;;;11.90;99.90;;;;;;4960574;28;20065;-71
2021/04/26 09:51:18;;;;;;;8.32;7.25;;;11.90;99.90;;;;;;4968088;28;20034;-70
2021/04/26 09:53:43;;;;;;;8.05;7.32;;;11.80;99.90;;;;;;4968395;28;20026;-70
2021/04/26 09:56:20;;;;;;;12.20;9.57;;;11.80;99.90;;;;;;4970234;28;20026;-71
2021/04/26 09:58:52;;;;;;;7.47;6.72;;;11.90;99.90;;;;;;4966092;28;20058;-71
2021/04/26 10:01:18;;;;;;;7.90;7.20;;;11.90;99.90;;;;;;4960828;28;20462;-71
2021/04/26 10:03:44;;;;;;;6.85;6.25;;;12.10;99.90;;;;;;4967289;28;20054;-69
2021/04/26 10:06:13;;;;;;;6.72;6.20;;;12.00;99.90;;;;;;4967419;28;20118;-68
2021/04/26 10:08:38;;;;;;;7.88;6.82;;;11.90;99.90;;;;;;4966807;28;20035;-65
2021/04/26 10:11:04;;;;;;;6.90;6.40;;;11.90;99.90;;;;;;4966552;28;20042;-68
2021/04/26 10:13:32;;;;;;;6.80;6.30;;;12.10;99.90;;;;;;4952859;28;20034;-70
2021/04/26 10:16:03;;;;;;;7.65;6.82;;;12.10;99.90;;;;;;4952930;28;20047;-71
2021/04/26 10:18:41;;;;;;;6.32;5.88;;;12.00;99.90;;;;;;4951413;28;20093;-70
2021/04/26 10:21:19;;;;;;;8.20;7.43;;;12.20;99.90;;;;;;4960065;28;20054;-71
2021/04/26 10:23:49;;;;;;;8.13;7.43;;;12.20;99.90;;;;;;4954739;28;20081;-69
2021/04/26 10:26:37;;;;;;;8.00;7.22;;;12.20;99.90;;;;;;4964697;28;20045;-71
2021/04/26 10:29:26;;;;;;;12.45;8.18;;;12.20;99.90;;;;;;4965161;28;20590;-69
2021/04/26 10:32:02;;;;;;;10.05;9.25;;;12.10;99.90;;;;;;4958314;28;20391;-71
2021/04/26 10:34:36;;;;;;;9.48;8.68;;;12.20;99.90;;;;;;4962169;28;20033;-72
2021/04/26 10:37:12;;;;;;;9.07;8.38;;;12.20;99.90;;;;;;4968593;28;20439;-72
2021/04/26 10:39:38;;;;;;;10.35;9.55;;;12.10;99.90;;;;;;4961374;28;20060;-72
2021/04/26 10:42:10;;;;;;;9.55;8.85;;;12.00;99.90;;;;;;4958460;28;20120;-71
2021/04/26 10:44:39;;;;;;;12.77;11.15;;;12.20;99.90;;;;;;4964872;28;20039;-71
2021/04/26 10:47:13;;;;;;;16.65;14.80;;;12.40;99.90;;;;;;4961013;28;20563;-71
2021/04/26 10:49:40;;;;;;;16.08;13.52;;;12.30;99.90;;;;;;4973127;28;20054;-71
2021/04/26 10:52:30;;;;;;;16.40;14.90;;;12.10;99.90;;;;;;4956499;28;20027;-71
2021/04/26 10:54:59;;;;;;;18.10;16.15;;;12.20;99.90;;;;;;4966078;28;20069;-70
2021/04/26 10:57:33;;;;;;;28.60;23.10;;;12.10;99.90;;;;;;4954481;28;20027;-72
2021/04/26 11:00:20;;;;;;;22.92;20.00;;;12.10;99.90;;;;;;4964233;28;20030;-72
2021/04/26 11:03:06;;;;;;;21.83;18.52;;;12.10;99.90;;;;;;4958653;28;20105;-71
2021/04/26 11:05:35;;;;;;;21.70;17.50;;;11.80;99.90;;;;;;4956195;28;20047;-71
2021/04/26 11:10:34;;;;;;;22.38;18.83;;;12.10;99.90;;;;;;4964437;28;20070;-71
2021/04/26 11:13:21;;;;;;;16.67;15.00;;;12.10;99.90;;;;;;4953934;28;20016;-72
2021/04/26 11:16:11;;;;;;;24.30;18.40;;;12.30;99.90;;;;;;4961781;28;20027;-72
2021/04/26 11:18:41;;;;;;;17.08;14.80;;;12.30;99.90;;;;;;4964923;28;20117;-71
2021/04/26 11:21:08;;;;;;;17.92;15.77;;;12.40;99.90;;;;;;4966503;28;20484;-70
2021/04/26 11:23:53;;;;;;;16.95;15.07;;;12.60;99.90;;;;;;4961908;28;20047;-69
2021/04/26 11:26:23;;;;;;;18.58;16.63;;;12.50;99.90;;;;;;4962475;28;20466;-69
2021/04/26 11:29:04;;;;;;;15.90;14.35;;;12.40;99.90;;;;;;4963660;28;20043;-72
2021/04/26 11:31:41;;;;;;;12.98;11.35;;;12.60;99.90;;;;;;4961000;28;20166;-72
2021/04/26 11:34:08;;;;;;;13.98;12.77;;;12.60;99.90;;;;;;4968553;28;20491;-72
2021/04/26 11:36:35;;;;;;;18.15;16.27;;;12.50;99.90;;;;;;4964136;28;20034;-72
2021/04/26 11:39:03;;;;;;;16.30;14.65;;;12.80;99.90;;;;;;4969373;28;20617;-72
2021/04/26 11:41:39;;;;;;;18.23;15.55;;;12.70;99.90;;;;;;4971383;28;20392;-72
2021/04/26 11:44:05;;;;;;;16.85;14.27;;;12.60;99.90;;;;;;4966267;28;20048;-72
2021/04/26 11:46:31;;;;;;;14.50;13.02;;;12.80;99.90;;;;;;4966233;28;20047;-68
2021/04/26 11:49:18;;;;;;;17.30;15.48;;;12.80;99.90;;;;;;4962721;28;20023;-66
2021/04/26 11:51:45;;;;;;;15.88;14.57;;;12.90;99.90;;;;;;4961355;28;20089;-67
2021/04/26 11:54:19;;;;;;;19.85;17.90;;;13.00;99.90;;;;;;4960991;28;20023;-71
2021/04/26 11:57:17;;;;;;;18.50;15.25;;;13.10;99.90;;;;;;4967398;28;20546;-71
2021/04/26 11:59:49;;;;;;;16.13;14.52;;;13.20;99.90;;;;;;4960800;28;20038;-71
2021/04/26 12:02:45;;;;;;;13.13;12.00;;;13.20;99.90;;;;;;4969984;28;20621;-72
2021/04/26 12:05:23;;;;;;;11.48;10.57;;;13.20;99.90;;;;;;4962980;28;20059;-71
2021/04/26 12:07:51;;;;;;;12.98;11.77;;;13.30;99.90;;;;;;4971377;28;20027;-70
2021/04/26 12:10:20;;;;;;;12.52;11.48;;;13.20;99.90;;;;;;4966046;28;20034;-70
2021/04/26 12:12:46;;;;;;;11.77;10.57;;;13.10;99.90;;;;;;4968248;28;20026;-69
2021/04/26 12:15:20;;;;;;;12.35;11.50;;;13.10;99.90;;;;;;4966418;28;20027;-68
2021/04/26 12:17:54;;;;;;;11.80;10.82;;;13.40;99.90;;;;;;4971642;28;20023;-68
2021/04/26 12:20:31;;;;;;;14.10;13.00;;;13.40;99.90;;;;;;4963103;28;20035;-69
2021/04/26 12:23:02;;;;;;;14.35;13.13;;;13.60;99.90;;;;;;4971905;28;20039;-69
2021/04/26 12:25:34;;;;;;;15.38;13.95;;;13.40;99.90;;;;;;4963153;28;20663;-68
2021/04/26 12:28:09;;;;;;;14.45;13.27;;;13.50;99.90;;;;;;4958532;28;20023;-69
2021/04/26 12:30:52;;;;;;;14.43;11.75;;;13.60;99.90;;;;;;4968377;28;20113;-71
2021/04/26 12:33:21;;;;;;;16.05;14.35;;;13.50;99.90;;;;;;4971295;28;20026;-72
2021/04/26 12:35:47;;;;;;;14.50;13.07;;;13.60;99.90;;;;;;4955159;28;20428;-73
2021/04/26 12:38:13;;;;;;;10.98;9.98;;;13.80;99.90;;;;;;4952106;28;20019;-75
2021/04/26 12:40:40;;;;;;;11.52;10.52;;;13.60;99.90;;;;;;4963068;28;20043;-75
2021/04/26 12:43:11;;;;;;;10.30;9.48;;;13.50;99.90;;;;;;4964689;28;20023;-74
2021/04/26 12:46:02;;;;;;;10.70;9.65;;;13.60;99.90;;;;;;4970296;28;20038;-72
2021/04/26 12:48:32;;;;;;;11.23;9.85;;;13.70;99.90;;;;;;4967826;28;20035;-73
2021/04/26 12:50:59;;;;;;;10.65;9.20;;;13.70;99.90;;;;;;4958714;28;20031;-74
2021/04/26 12:53:27;;;;;;;16.77;13.07;;;13.50;99.90;;;;;;4969509;28;20049;-74
2021/04/26 12:56:02;;;;;;;9.35;8.63;;;13.50;99.90;;;;;;4966549;28;20034;-75